createdAt,value
2019-03-09T00:02:36.539Z,8.13
2019-03-09T00:05:23.917Z,8.16
2019-03-09T00:08:09.666Z,8.21
2019-03-09T00:10:55.901Z,8.18
2019-03-09T00:13:43.019Z,8.15
2019-03-09T00:16:29.435Z,7.97
2019-03-09T00:19:15.195Z,8.01
2019-03-09T00:22:00.849Z,7.96
2019-03-09T00:25:00.748Z,7.88
2019-03-09T00:27:55.003Z,7.98
2019-03-09T00:31:06.229Z,7.99
2019-03-09T00:33:52.157Z,8.04
2019-03-09T00:36:37.903Z,8.02
2019-03-09T00:39:23.651Z,8.04
2019-03-09T00:42:09.401Z,7.96
2019-03-09T00:44:55.883Z,8.08
2019-03-09T00:47:41.763Z,8.26
2019-03-09T00:50:27.583Z,7.90
2019-03-09T00:53:13.885Z,8.06
2019-03-09T00:56:00.374Z,7.88
2019-03-09T00:58:46.687Z,8.04
2019-03-09T01:01:34.157Z,7.91
2019-03-09T01:04:19.985Z,7.96
2019-03-09T01:07:05.809Z,8.06
2019-03-09T01:09:52.466Z,8.01
2019-03-09T01:12:39.480Z,8.01
2019-03-09T01:15:25.269Z,7.97
2019-03-09T01:18:11.306Z,8.07
2019-03-09T01:20:56.705Z,8.19
2019-03-09T01:23:43.101Z,8.02
2019-03-09T01:26:29.683Z,8.01
2019-03-09T01:29:16.196Z,7.85
2019-03-09T01:32:02.060Z,7.82
2019-03-09T01:34:48.466Z,7.76
2019-03-09T01:37:34.141Z,7.67
2019-03-09T01:40:19.857Z,7.61
2019-03-09T01:43:07.337Z,7.59
2019-03-09T01:45:52.804Z,7.66
2019-03-09T01:48:38.333Z,7.60
2019-03-09T01:51:23.718Z,7.58
2019-03-09T01:54:09.432Z,7.43
2019-03-09T01:56:56.073Z,7.39
2019-03-09T01:59:42.609Z,7.40
2019-03-09T02:02:28.486Z,7.36
2019-03-09T02:05:16.623Z,7.37
2019-03-09T02:08:02.627Z,7.44
2019-03-09T02:10:48.433Z,7.45
2019-03-09T02:13:34.324Z,7.35
2019-03-09T02:16:19.738Z,7.37
2019-03-09T02:19:05.851Z,7.33
2019-03-09T02:21:52.485Z,7.31
2019-03-09T02:24:38.321Z,7.34
2019-03-09T02:27:24.409Z,7.29
2019-03-09T02:30:10.427Z,7.33
2019-03-09T02:32:57.834Z,7.14
2019-03-09T02:35:43.869Z,7.20
2019-03-09T02:38:35.973Z,7.10
2019-03-09T02:41:21.495Z,7.06
2019-03-09T02:44:08.944Z,7.21
2019-03-09T02:46:55.263Z,7.11
2019-03-09T02:49:41.934Z,7.00
2019-03-09T02:52:28.236Z,7.08
2019-03-09T02:55:16.379Z,7.08
2019-03-09T02:58:01.730Z,7.19
2019-03-09T03:00:51.318Z,7.05
2019-03-09T03:03:37.923Z,7.01
2019-03-09T03:06:23.935Z,7.04
2019-03-09T03:09:10.396Z,6.88
2019-03-09T03:11:57.702Z,7.06
2019-03-09T03:14:43.475Z,7.00
2019-03-09T03:17:29.417Z,7.06
2019-03-09T03:20:16.246Z,7.00
2019-03-09T03:23:02.357Z,7.11
2019-03-09T03:25:48.320Z,7.07
2019-03-09T03:28:33.685Z,7.05
2019-03-09T03:31:19.523Z,7.14
2019-03-09T03:34:07.140Z,7.19
2019-03-09T03:36:52.850Z,7.24
2019-03-09T03:39:38.851Z,7.19
2019-03-09T03:42:26.302Z,7.36
2019-03-09T03:45:12.410Z,7.36
2019-03-09T03:47:57.996Z,7.36
2019-03-09T03:50:46.200Z,7.45
2019-03-09T03:53:32.230Z,7.41
2019-03-09T03:56:18.154Z,7.42
2019-03-09T03:59:04.692Z,7.48
2019-03-09T04:01:50.692Z,7.62
2019-03-09T04:04:36.560Z,7.46
2019-03-09T04:07:25.810Z,7.59
2019-03-09T04:10:12.175Z,7.73
2019-03-09T04:12:59.054Z,7.57
2019-03-09T04:15:45.572Z,7.82
2019-03-09T04:18:31.852Z,7.76
2019-03-09T04:21:18.499Z,7.89
2019-03-09T04:24:04.363Z,7.86
2019-03-09T04:26:50.210Z,7.89
2019-03-09T04:29:35.831Z,7.94
2019-03-09T04:32:22.405Z,7.98
2019-03-09T04:35:08.416Z,7.90
2019-03-09T04:37:54.423Z,8.12
2019-03-09T04:40:40.406Z,8.01
2019-03-09T04:43:25.988Z,8.08
2019-03-09T04:46:11.726Z,8.08
2019-03-09T04:48:57.898Z,8.13
2019-03-09T04:51:43.730Z,8.11
2019-03-09T04:54:29.930Z,8.18
2019-03-09T04:57:15.876Z,8.23
2019-03-09T05:00:02.218Z,8.16
2019-03-09T05:02:47.602Z,8.32
2019-03-09T05:05:34.751Z,8.33
2019-03-09T05:08:35.739Z,8.38
2019-03-09T05:11:25.058Z,8.40
2019-03-09T05:14:14.170Z,8.30
2019-03-09T05:17:00.165Z,8.32
2019-03-09T05:19:46.061Z,8.39
2019-03-09T05:22:32.660Z,8.40
2019-03-09T05:25:18.747Z,8.48
2019-03-09T05:28:04.165Z,8.43
2019-03-09T05:30:51.171Z,8.36
2019-03-09T05:33:38.186Z,8.39
2019-03-09T05:36:24.160Z,8.46
2019-03-09T05:39:10.661Z,8.46
2019-03-09T05:41:56.599Z,8.46
2019-03-09T05:44:42.594Z,8.45
2019-03-09T05:47:29.310Z,8.29
2019-03-09T05:50:14.764Z,8.36
2019-03-09T05:53:06.161Z,8.20
2019-03-09T05:55:53.407Z,8.31
2019-03-09T05:58:39.593Z,8.28
2019-03-09T06:01:25.325Z,8.21
2019-03-09T06:04:11.222Z,8.20
2019-03-09T06:06:57.629Z,8.17
2019-03-09T06:09:43.452Z,8.20
2019-03-09T06:12:29.561Z,8.37
2019-03-09T06:15:15.851Z,8.21
2019-03-09T06:18:01.450Z,8.33
2019-03-09T06:20:47.291Z,8.15
2019-03-09T06:23:32.959Z,8.19
2019-03-09T06:26:18.635Z,8.27
2019-03-09T06:29:04.911Z,8.44
2019-03-09T06:32:34.174Z,8.44
2019-03-09T06:35:20.187Z,8.31
2019-03-09T06:38:19.374Z,8.60
2019-03-09T06:41:06.531Z,8.66
2019-03-09T06:43:52.271Z,8.68
2019-03-09T06:46:38.199Z,8.84
2019-03-09T06:49:24.545Z,8.94
2019-03-09T06:52:10.180Z,8.85
2019-03-09T06:54:56.438Z,8.67
2019-03-09T06:57:42.443Z,8.81
2019-03-09T07:00:36.451Z,8.76
2019-03-09T07:03:22.453Z,8.70
2019-03-09T07:06:08.855Z,8.49
2019-03-09T07:08:55.107Z,8.53
2019-03-09T07:11:40.943Z,8.65
2019-03-09T07:15:20.387Z,8.78
2019-03-09T07:18:13.759Z,8.80
2019-03-09T07:21:00.137Z,9.11
2019-03-09T07:23:47.819Z,9.29
2019-03-09T07:26:34.367Z,9.06
2019-03-09T07:29:20.191Z,8.93
2019-03-09T07:32:06.963Z,9.09
2019-03-09T07:34:52.675Z,9.48
2019-03-09T07:37:39.066Z,9.67
2019-03-09T07:40:25.868Z,9.86
2019-03-09T07:43:11.849Z,10.01
2019-03-09T07:45:57.891Z,10.12
2019-03-09T07:48:44.090Z,10.19
2019-03-09T07:51:30.253Z,9.98
2019-03-09T07:54:16.122Z,9.82
2019-03-09T07:57:03.066Z,10.68
2019-03-09T07:59:48.927Z,10.13
2019-03-09T08:02:34.849Z,10.13
2019-03-09T08:05:20.839Z,10.25
2019-03-09T08:08:06.629Z,9.93
2019-03-09T08:10:52.623Z,9.67
2019-03-09T08:13:39.011Z,9.78
2019-03-09T08:16:24.544Z,9.84
2019-03-09T08:19:09.959Z,9.62
2019-03-09T08:21:55.924Z,9.73
2019-03-09T08:24:42.508Z,9.69
2019-03-09T08:27:28.367Z,9.96
2019-03-09T08:30:16.093Z,9.98
2019-03-09T08:33:01.650Z,9.92
2019-03-09T08:35:47.398Z,10.07
2019-03-09T08:38:34.099Z,10.37
2019-03-09T08:41:19.793Z,11.02
2019-03-09T08:44:05.563Z,10.78
2019-03-09T08:46:52.175Z,10.30
2019-03-09T08:49:38.010Z,10.35
2019-03-09T08:52:23.906Z,10.17
2019-03-09T08:55:12.253Z,10.17
2019-03-09T08:57:58.370Z,10.10
2019-03-09T09:00:44.608Z,10.10
2019-03-09T09:03:31.307Z,10.21
2019-03-09T09:06:17.826Z,10.33
2019-03-09T09:09:04.706Z,10.25
2019-03-09T09:11:50.666Z,10.42
2019-03-09T09:14:36.225Z,10.60
2019-03-09T09:17:22.533Z,10.70
2019-03-09T09:20:11.740Z,10.78
2019-03-09T09:22:57.310Z,10.81
2019-03-09T09:25:43.766Z,10.56
2019-03-09T09:28:30.077Z,10.73
2019-03-09T09:31:15.924Z,10.78
2019-03-09T09:34:02.067Z,10.85
2019-03-09T09:36:48.394Z,10.97
2019-03-09T09:39:33.933Z,11.25
2019-03-09T09:42:20.011Z,10.98
2019-03-09T09:45:06.515Z,11.05
2019-03-09T09:47:52.731Z,10.81
2019-03-09T09:50:38.857Z,10.84
2019-03-09T09:53:24.538Z,10.94
2019-03-09T09:56:09.845Z,10.86
2019-03-09T09:58:55.993Z,11.16
2019-03-09T10:01:42.188Z,11.19
2019-03-09T10:04:28.136Z,11.38
2019-03-09T10:07:15.198Z,11.15
2019-03-09T10:10:01.029Z,11.39
2019-03-09T10:12:46.798Z,11.34
2019-03-09T10:15:33.040Z,11.09
2019-03-09T10:18:20.105Z,11.36
2019-03-09T10:21:05.934Z,11.37
2019-03-09T10:23:52.161Z,11.33
2019-03-09T10:26:37.840Z,11.23
2019-03-09T10:29:23.682Z,11.08
2019-03-09T10:32:09.479Z,11.06
2019-03-09T10:34:54.900Z,11.11
2019-03-09T10:37:40.366Z,11.18
2019-03-09T10:40:27.001Z,11.23
2019-03-09T10:43:12.785Z,11.14
2019-03-09T10:45:59.772Z,11.20
2019-03-09T10:48:45.709Z,11.55
2019-03-09T10:51:31.316Z,11.90
2019-03-09T10:54:17.235Z,11.62
2019-03-09T10:57:03.610Z,12.02
2019-03-09T10:59:49.068Z,11.74
2019-03-09T11:02:34.433Z,11.51
2019-03-09T11:05:23.317Z,11.61
2019-03-09T11:08:08.819Z,11.51
2019-03-09T11:10:55.001Z,11.73
2019-03-09T11:13:51.483Z,11.65
2019-03-09T11:16:30.593Z,11.59
2019-03-09T11:19:17.002Z,11.81
2019-03-09T11:22:03.172Z,11.60
2019-03-09T11:24:49.011Z,11.51
2019-03-09T11:27:36.176Z,11.55
2019-03-09T11:30:25.018Z,11.49
2019-03-09T11:33:10.894Z,11.61
2019-03-09T11:35:57.057Z,11.57
2019-03-09T11:38:43.047Z,11.75
2019-03-09T11:41:28.740Z,11.59
2019-03-09T11:44:17.023Z,11.73
2019-03-09T11:47:10.012Z,11.82
2019-03-09T11:49:55.824Z,12.01
2019-03-09T11:52:41.115Z,12.02
2019-03-09T11:55:26.457Z,12.15
2019-03-09T11:58:11.804Z,12.25
2019-03-09T12:01:00.171Z,12.87
2019-03-09T12:03:47.367Z,13.28
2019-03-09T12:06:37.276Z,12.95
2019-03-09T12:09:23.140Z,13.09
2019-03-09T12:12:08.781Z,13.18
2019-03-09T12:14:54.113Z,14.26
2019-03-09T12:17:40.371Z,14.38
2019-03-09T12:20:27.454Z,14.39
2019-03-09T12:23:22.259Z,13.73
2019-03-09T12:26:08.738Z,12.96
2019-03-09T12:28:55.224Z,12.45
2019-03-09T12:31:40.897Z,12.13
2019-03-09T12:34:26.690Z,12.46
2019-03-09T12:37:12.557Z,12.46
2019-03-09T12:39:58.608Z,12.51
2019-03-09T12:42:43.965Z,12.98
2019-03-09T12:45:29.454Z,12.50
2019-03-09T12:48:15.228Z,12.29
2019-03-09T12:51:00.604Z,12.75
2019-03-09T12:53:46.437Z,12.53
2019-03-09T12:56:32.642Z,12.13
2019-03-09T12:59:17.987Z,12.84
2019-03-09T13:02:03.431Z,12.78
2019-03-09T13:04:49.801Z,12.61
2019-03-09T13:07:35.772Z,12.49
2019-03-09T13:10:21.867Z,12.47
2019-03-09T13:13:10.006Z,12.46
2019-03-09T13:15:57.987Z,12.42
2019-03-09T13:18:43.583Z,12.33
2019-03-09T13:21:32.046Z,12.30
2019-03-09T13:24:24.977Z,12.45
2019-03-09T13:27:11.150Z,12.31
2019-03-09T13:29:58.849Z,12.53
2019-03-09T13:32:44.849Z,12.39
2019-03-09T13:35:33.511Z,12.21
2019-03-09T13:38:20.233Z,12.35
2019-03-09T13:41:06.353Z,12.48
2019-03-09T13:43:52.730Z,12.24
2019-03-09T13:46:38.876Z,12.36
2019-03-09T13:49:26.891Z,12.34
2019-03-09T13:52:13.955Z,12.27
2019-03-09T13:55:00.238Z,12.08
2019-03-09T13:57:46.566Z,12.16
2019-03-09T14:00:40.344Z,12.07
2019-03-09T14:03:21.090Z,11.92
2019-03-09T14:06:07.794Z,11.08
2019-03-09T14:08:54.177Z,10.11
2019-03-09T14:11:40.487Z,9.63
2019-03-09T14:14:26.920Z,9.38
2019-03-09T14:17:12.923Z,9.34
2019-03-09T14:19:59.915Z,8.88
2019-03-09T14:22:46.111Z,8.50
2019-03-09T14:25:32.818Z,8.87
2019-03-09T14:28:19.403Z,10.10
2019-03-09T14:31:05.678Z,10.34
2019-03-09T14:33:51.589Z,11.38
2019-03-09T14:36:38.890Z,11.41
2019-03-09T14:39:25.271Z,11.25
2019-03-09T14:42:11.326Z,10.97
2019-03-09T14:44:57.723Z,10.55
2019-03-09T14:47:43.881Z,10.15
2019-03-09T14:50:29.989Z,10.28
2019-03-09T14:53:17.139Z,10.74
2019-03-09T14:56:03.403Z,10.59
2019-03-09T14:58:49.914Z,10.45
2019-03-09T15:01:36.270Z,10.71
2019-03-09T15:04:22.747Z,10.79
2019-03-09T15:07:09.835Z,10.56
2019-03-09T15:09:56.455Z,10.42
2019-03-09T15:12:42.414Z,10.33
2019-03-09T15:15:30.375Z,10.44
2019-03-09T15:18:16.312Z,10.26
2019-03-09T15:21:02.763Z,10.29
2019-03-09T15:23:49.343Z,10.15
2019-03-09T15:26:35.870Z,9.30
2019-03-09T15:29:22.145Z,8.85
2019-03-09T15:32:09.015Z,8.77
2019-03-09T15:34:55.020Z,8.79
2019-03-09T15:37:41.369Z,8.77
2019-03-09T15:40:27.712Z,8.83
2019-03-09T15:43:14.030Z,8.63
2019-03-09T15:46:01.544Z,8.63
2019-03-09T15:48:48.379Z,8.38
2019-03-09T15:51:35.942Z,8.31
2019-03-09T15:54:22.097Z,8.13
2019-03-09T15:57:08.820Z,6.75
2019-03-09T15:59:55.042Z,6.38
2019-03-09T16:02:41.497Z,6.44
2019-03-09T16:05:28.401Z,6.53
2019-03-09T16:08:14.868Z,6.48
2019-03-09T16:11:01.471Z,6.57
2019-03-09T16:13:48.000Z,6.76
2019-03-09T16:16:34.500Z,6.97
2019-03-09T16:19:21.632Z,7.03
2019-03-09T16:22:08.089Z,7.26
2019-03-09T16:24:54.421Z,7.13
2019-03-09T16:27:40.328Z,7.32
2019-03-09T16:30:26.921Z,7.38
2019-03-09T16:33:13.184Z,7.41
2019-03-09T16:35:59.476Z,7.33
2019-03-09T16:38:53.708Z,7.39
2019-03-09T16:41:40.106Z,7.42
2019-03-09T16:44:26.068Z,7.59
2019-03-09T16:47:12.999Z,7.47
2019-03-09T16:49:59.032Z,7.45
2019-03-09T16:52:45.353Z,7.58
2019-03-09T16:55:34.700Z,7.59
2019-03-09T16:58:21.243Z,7.35
2019-03-09T17:01:07.168Z,7.33
2019-03-09T17:03:54.729Z,7.49
2019-03-09T17:06:41.121Z,7.41
2019-03-09T17:09:27.222Z,7.54
2019-03-09T17:12:14.143Z,7.42
2019-03-09T17:15:00.113Z,7.61
2019-03-09T17:17:46.599Z,7.63
2019-03-09T17:20:37.711Z,7.73
2019-03-09T17:23:24.313Z,7.68
2019-03-09T17:26:11.052Z,7.78
2019-03-09T17:28:57.401Z,7.90
2019-03-09T17:31:43.431Z,7.92
2019-03-09T17:34:30.801Z,7.89
2019-03-09T17:37:16.858Z,8.09
2019-03-09T17:40:04.341Z,8.07
2019-03-09T17:42:50.568Z,8.00
2019-03-09T17:45:37.135Z,8.17
2019-03-09T17:48:23.961Z,8.14
2019-03-09T17:51:09.915Z,8.18
2019-03-09T17:53:56.008Z,8.18
2019-03-09T17:56:41.897Z,8.13
2019-03-09T17:59:27.965Z,8.09
2019-03-09T18:02:14.357Z,8.18
2019-03-09T18:05:00.937Z,8.22
2019-03-09T18:07:46.857Z,8.12
2019-03-09T18:10:40.045Z,8.13
2019-03-09T18:13:26.244Z,8.14
2019-03-09T18:16:12.595Z,8.06
2019-03-09T18:18:59.141Z,8.01
2019-03-09T18:21:45.477Z,7.97
2019-03-09T18:24:31.305Z,7.90
2019-03-09T18:27:17.761Z,7.98
2019-03-09T18:30:21.006Z,7.90
2019-03-09T18:33:07.229Z,7.80
2019-03-09T18:35:53.525Z,7.64
2019-03-09T18:38:39.401Z,7.73
2019-03-09T18:41:53.732Z,7.61
2019-03-09T18:44:40.092Z,7.65
2019-03-09T18:47:26.568Z,7.61
2019-03-09T18:50:13.469Z,7.54
2019-03-09T18:52:59.732Z,7.65
2019-03-09T18:55:59.423Z,7.38
2019-03-09T18:58:46.382Z,7.30
2019-03-09T19:01:34.668Z,7.44
2019-03-09T19:04:21.567Z,7.44
2019-03-09T19:07:07.836Z,7.30
2019-03-09T19:09:55.868Z,7.21
2019-03-09T19:12:42.293Z,7.23
2019-03-09T19:15:29.138Z,7.12
2019-03-09T19:18:15.725Z,7.17
2019-03-09T19:21:02.558Z,7.12
2019-03-09T19:23:48.770Z,7.25
2019-03-09T19:26:35.218Z,7.10
2019-03-09T19:29:29.481Z,7.15
2019-03-09T19:32:16.547Z,7.10
2019-03-09T19:35:02.664Z,7.11
2019-03-09T19:37:50.943Z,7.09
2019-03-09T19:40:36.822Z,7.05
2019-03-09T19:43:22.867Z,7.05
2019-03-09T19:46:09.941Z,7.03
2019-03-09T19:48:55.977Z,6.99
2019-03-09T19:51:42.041Z,7.02
2019-03-09T19:54:28.888Z,7.12
2019-03-09T19:57:15.324Z,6.89
2019-03-09T20:00:01.747Z,7.02
2019-03-09T20:02:48.513Z,7.00
2019-03-09T20:05:34.869Z,7.13
2019-03-09T20:08:22.533Z,7.02
2019-03-09T20:11:09.098Z,7.01
2019-03-09T20:13:55.083Z,6.87
2019-03-09T20:16:41.046Z,7.02
2019-03-09T20:19:27.715Z,7.05
2019-03-09T20:22:15.870Z,6.95
2019-03-09T20:25:02.428Z,6.99
2019-03-09T20:28:03.234Z,7.01
2019-03-09T20:30:49.350Z,6.86
2019-03-09T20:33:35.304Z,6.84
2019-03-09T20:36:21.794Z,6.79
2019-03-09T20:39:08.162Z,6.79
2019-03-09T20:41:55.168Z,6.85
2019-03-09T20:44:42.223Z,6.98
2019-03-09T20:47:28.121Z,6.93
2019-03-09T20:50:15.841Z,6.90
2019-03-09T20:53:02.791Z,6.92
2019-03-09T20:55:48.974Z,7.02
2019-03-09T20:58:35.633Z,7.14
2019-03-09T21:01:26.378Z,7.12
2019-03-09T21:04:12.566Z,7.18
2019-03-09T21:06:58.509Z,7.31
2019-03-09T21:09:48.013Z,7.39
2019-03-09T21:12:33.769Z,7.51
2019-03-09T21:15:19.748Z,7.45
2019-03-09T21:18:06.373Z,7.44
2019-03-09T21:20:52.566Z,7.46
2019-03-09T21:23:38.628Z,7.65
2019-03-09T21:26:25.402Z,7.59
2019-03-09T21:29:11.280Z,7.73
2019-03-09T21:31:57.791Z,7.58
2019-03-09T21:34:44.791Z,7.64
2019-03-09T21:37:31.140Z,7.54
2019-03-09T21:40:18.021Z,7.49
2019-03-09T21:43:04.830Z,7.53
2019-03-09T21:45:50.718Z,7.58
2019-03-09T21:48:36.642Z,7.60
2019-03-09T21:51:23.149Z,7.57
2019-03-09T21:54:09.750Z,7.44
2019-03-09T21:57:30.315Z,7.50
2019-03-09T22:00:16.590Z,7.49
2019-03-09T22:03:02.850Z,7.41
2019-03-09T22:05:49.423Z,7.48
2019-03-09T22:08:35.979Z,7.49
2019-03-09T22:11:21.942Z,7.40
2019-03-09T22:14:08.411Z,7.50
2019-03-09T22:16:57.729Z,7.44
2019-03-09T22:19:44.108Z,7.70
2019-03-09T22:22:30.626Z,7.61
2019-03-09T22:25:17.392Z,7.70
2019-03-09T22:28:03.622Z,7.75
2019-03-09T22:30:50.034Z,7.58
2019-03-09T22:33:36.216Z,7.72
2019-03-09T22:36:23.027Z,7.69
2019-03-09T22:39:09.463Z,7.80
2019-03-09T22:41:56.609Z,7.68
2019-03-09T22:44:42.567Z,7.77
2019-03-09T22:47:28.938Z,7.88
2019-03-09T22:50:15.299Z,7.91
2019-03-09T22:53:01.594Z,7.86
2019-03-09T22:55:47.586Z,7.83
2019-03-09T22:58:33.563Z,8.01
2019-03-09T23:01:20.391Z,7.78
2019-03-09T23:04:07.197Z,7.80
2019-03-09T23:07:12.234Z,7.78
2019-03-09T23:10:00.835Z,7.91
2019-03-09T23:12:47.350Z,7.77
2019-03-09T23:15:33.944Z,7.81
2019-03-09T23:18:34.570Z,7.98
2019-03-09T23:21:37.873Z,7.86
2019-03-09T23:24:24.512Z,7.88
2019-03-09T23:27:20.935Z,7.99
2019-03-09T23:30:10.861Z,8.03
2019-03-09T23:32:57.267Z,8.08
2019-03-09T23:35:44.051Z,8.16
2019-03-09T23:38:30.259Z,8.08
2019-03-09T23:41:16.542Z,8.21
2019-03-09T23:44:04.461Z,8.13
2019-03-09T23:46:50.965Z,8.05
2019-03-09T23:49:37.351Z,8.27
2019-03-09T23:52:24.511Z,8.24
2019-03-09T23:55:21.426Z,8.27
2019-03-09T23:57:59.503Z,8.13
